createdAt,value
2018-08-16T00:00:52.496Z,67.63
2018-08-16T00:01:56.678Z,67.18
2018-08-16T00:03:01.254Z,67.38
2018-08-16T00:04:05.598Z,67.58
2018-08-16T00:05:10.058Z,67.89
2018-08-16T00:06:14.343Z,67.40
2018-08-16T00:07:18.558Z,67.41
2018-08-16T00:08:22.804Z,67.71
2018-08-16T00:09:26.988Z,67.76
2018-08-16T00:10:31.210Z,67.33
2018-08-16T00:11:35.568Z,67.70
2018-08-16T00:12:40.261Z,67.19
2018-08-16T00:13:44.495Z,67.55
2018-08-16T00:14:48.835Z,67.64
2018-08-16T00:15:53.017Z,67.04
2018-08-16T00:16:57.261Z,67.50
2018-08-16T00:18:01.487Z,67.05
2018-08-16T00:19:06.042Z,67.53
2018-08-16T00:20:10.701Z,66.81
2018-08-16T00:21:15.158Z,67.11
2018-08-16T00:22:19.490Z,66.54
2018-08-16T00:23:23.734Z,66.67
2018-08-16T00:24:27.980Z,67.13
2018-08-16T00:25:32.114Z,66.66
2018-08-16T00:26:36.299Z,66.51
2018-08-16T00:27:40.543Z,67.12
2018-08-16T00:28:44.712Z,67.33
2018-08-16T00:29:49.210Z,67.00
2018-08-16T00:30:53.414Z,67.33
2018-08-16T00:31:57.620Z,67.28
2018-08-16T00:33:01.780Z,66.54
2018-08-16T00:34:06.068Z,67.06
2018-08-16T00:35:10.435Z,66.34
2018-08-16T00:36:14.661Z,66.82
2018-08-16T00:37:18.822Z,66.86
2018-08-16T00:38:23.223Z,67.06
2018-08-16T00:39:27.466Z,66.78
2018-08-16T00:40:31.818Z,66.31
2018-08-16T00:41:36.152Z,66.68
2018-08-16T00:42:40.399Z,66.81
2018-08-16T00:43:45.035Z,66.69
2018-08-16T00:44:49.371Z,66.90
2018-08-16T00:45:53.568Z,66.03
2018-08-16T00:46:57.737Z,66.39
2018-08-16T00:48:01.938Z,66.79
2018-08-16T00:49:06.304Z,66.51
2018-08-16T00:50:13.375Z,66.38
2018-08-16T00:51:17.755Z,66.44
2018-08-16T00:52:22.024Z,65.95
2018-08-16T00:53:26.190Z,66.62
2018-08-16T00:54:30.435Z,66.19
2018-08-16T00:55:34.626Z,66.02
2018-08-16T00:56:38.811Z,66.03
2018-08-16T00:57:42.978Z,66.52
2018-08-16T00:58:47.175Z,66.61
2018-08-16T00:59:51.398Z,66.43
2018-08-16T01:00:55.604Z,66.68
2018-08-16T01:01:59.829Z,66.59
2018-08-16T01:03:04.076Z,66.81
2018-08-16T01:04:08.792Z,66.39
2018-08-16T01:05:13.511Z,67.23
2018-08-16T01:06:17.683Z,67.23
2018-08-16T01:07:21.899Z,66.95
2018-08-16T01:08:26.099Z,66.58
2018-08-16T01:09:30.351Z,67.16
2018-08-16T01:10:34.595Z,67.15
2018-08-16T01:11:38.847Z,67.03
2018-08-16T01:12:43.831Z,67.25
2018-08-16T01:13:48.010Z,67.51
2018-08-16T01:14:52.235Z,67.43
2018-08-16T01:15:56.487Z,66.88
2018-08-16T01:17:00.846Z,67.13
2018-08-16T01:18:05.087Z,66.93
2018-08-16T01:19:09.330Z,67.54
2018-08-16T01:20:13.746Z,67.13
2018-08-16T01:21:18.027Z,67.33
2018-08-16T01:22:22.255Z,67.29
2018-08-16T01:23:26.445Z,67.59
2018-08-16T01:24:30.623Z,67.46
2018-08-16T01:25:34.800Z,67.42
2018-08-16T01:26:39.251Z,68.02
2018-08-16T01:27:43.453Z,67.68
2018-08-16T01:28:47.749Z,67.81
2018-08-16T01:29:52.175Z,68.08
2018-08-16T01:30:56.382Z,67.88
2018-08-16T01:32:00.623Z,67.92
2018-08-16T01:33:05.097Z,67.74
2018-08-16T01:34:09.295Z,67.96
2018-08-16T01:35:13.786Z,67.91
2018-08-16T01:36:17.991Z,68.12
2018-08-16T01:37:22.227Z,67.86
2018-08-16T01:38:26.474Z,67.73
2018-08-16T01:39:30.658Z,68.25
2018-08-16T01:40:34.944Z,67.77
2018-08-16T01:41:39.431Z,68.13
2018-08-16T01:42:43.933Z,67.46
2018-08-16T01:43:48.377Z,67.55
2018-08-16T01:44:52.506Z,68.18
2018-08-16T01:45:56.740Z,68.09
2018-08-16T01:47:01.339Z,67.67
2018-08-16T01:48:05.598Z,67.94
2018-08-16T01:49:20.871Z,67.74
2018-08-16T01:50:25.054Z,68.21
2018-08-16T01:51:29.280Z,67.77
2018-08-16T01:52:33.636Z,68.19
2018-08-16T01:53:38.818Z,67.79
2018-08-16T01:54:42.991Z,67.51
2018-08-16T01:55:47.158Z,67.70
2018-08-16T01:56:51.490Z,67.76
2018-08-16T01:57:55.702Z,67.62
2018-08-16T01:58:59.947Z,68.13
2018-08-16T02:00:06.907Z,67.59
2018-08-16T02:01:11.121Z,67.94
2018-08-16T02:02:15.260Z,67.33
2018-08-16T02:03:19.441Z,67.35
2018-08-16T02:04:23.645Z,67.38
2018-08-16T02:05:27.854Z,67.51
2018-08-16T02:06:32.044Z,67.96
2018-08-16T02:07:36.284Z,67.47
2018-08-16T02:08:40.463Z,67.42
2018-08-16T02:09:44.692Z,67.49
2018-08-16T02:10:48.969Z,67.66
2018-08-16T02:11:53.594Z,67.85
2018-08-16T02:12:57.859Z,67.88
2018-08-16T02:14:02.032Z,68.31
2018-08-16T02:15:09.767Z,68.20
2018-08-16T02:16:13.940Z,67.41
2018-08-16T02:17:18.118Z,68.07
2018-08-16T02:18:22.326Z,68.24
2018-08-16T02:19:26.539Z,68.05
2018-08-16T02:20:30.810Z,67.86
2018-08-16T02:21:35.179Z,68.36
2018-08-16T02:22:39.627Z,68.12
2018-08-16T02:23:43.782Z,68.16
2018-08-16T02:24:48.041Z,67.93
2018-08-16T02:25:52.223Z,67.98
2018-08-16T02:26:56.438Z,68.14
2018-08-16T02:28:00.626Z,68.21
2018-08-16T02:29:05.239Z,68.66
2018-08-16T02:30:10.243Z,67.96
2018-08-16T02:31:14.569Z,68.33
2018-08-16T02:32:18.750Z,68.78
2018-08-16T02:33:22.935Z,67.98
2018-08-16T02:34:27.100Z,68.25
2018-08-16T02:35:31.570Z,67.95
2018-08-16T02:36:35.764Z,68.04
2018-08-16T02:37:39.921Z,67.98
2018-08-16T02:38:44.068Z,68.44
2018-08-16T02:39:48.224Z,68.00
2018-08-16T02:40:52.447Z,68.67
2018-08-16T02:41:56.823Z,68.39
2018-08-16T02:43:01.062Z,68.80
2018-08-16T02:44:05.240Z,68.18
2018-08-16T02:45:09.414Z,68.86
2018-08-16T02:46:13.683Z,68.92
2018-08-16T02:47:17.881Z,68.63
2018-08-16T02:48:22.210Z,69.06
2018-08-16T02:49:26.354Z,68.32
2018-08-16T02:50:30.500Z,68.44
2018-08-16T02:51:34.719Z,68.71
2018-08-16T02:52:39.014Z,68.59
2018-08-16T02:53:43.142Z,68.92
2018-08-16T02:54:47.317Z,69.47
2018-08-16T02:55:51.578Z,69.31
2018-08-16T02:56:55.739Z,68.88
2018-08-16T02:57:59.936Z,69.08
2018-08-16T02:59:04.324Z,69.49
2018-08-16T03:00:09.665Z,68.98
2018-08-16T03:01:13.859Z,69.19
2018-08-16T03:02:18.052Z,69.18
2018-08-16T03:03:22.247Z,69.11
2018-08-16T03:04:26.410Z,69.33
2018-08-16T03:05:30.574Z,69.09
2018-08-16T03:06:34.724Z,69.59
2018-08-16T03:07:38.891Z,69.03
2018-08-16T03:08:43.070Z,69.45
2018-08-16T03:09:47.225Z,69.31
2018-08-16T03:10:51.402Z,69.66
2018-08-16T03:11:55.552Z,69.25
2018-08-16T03:12:59.726Z,69.72
2018-08-16T03:14:03.956Z,69.26
2018-08-16T03:15:09.232Z,69.76
2018-08-16T03:16:13.378Z,69.36
2018-08-16T03:17:17.570Z,69.54
2018-08-16T03:18:21.858Z,70.15
2018-08-16T03:19:26.188Z,69.99
2018-08-16T03:20:30.559Z,70.24
2018-08-16T03:21:34.927Z,70.25
2018-08-16T03:22:39.129Z,69.59
2018-08-16T03:23:43.363Z,70.17
2018-08-16T03:24:47.579Z,70.11
2018-08-16T03:25:51.929Z,69.76
2018-08-16T03:26:56.058Z,70.03
2018-08-16T03:28:00.222Z,70.12
2018-08-16T03:29:04.639Z,70.32
2018-08-16T03:30:08.859Z,70.62
2018-08-16T03:31:13.268Z,70.14
2018-08-16T03:32:17.587Z,70.14
2018-08-16T03:33:21.763Z,70.18
2018-08-16T03:34:25.964Z,70.51
2018-08-16T03:35:30.163Z,70.41
2018-08-16T03:36:34.642Z,70.16
2018-08-16T03:37:38.827Z,69.64
2018-08-16T03:38:43.008Z,69.71
2018-08-16T03:39:47.186Z,69.79
2018-08-16T03:40:51.394Z,70.46
2018-08-16T03:41:55.632Z,70.48
2018-08-16T03:42:59.787Z,70.34
2018-08-16T03:44:04.134Z,70.24
2018-08-16T03:45:08.850Z,70.19
2018-08-16T03:46:13.259Z,70.41
2018-08-16T03:47:17.467Z,70.60
2018-08-16T03:48:21.875Z,70.39
2018-08-16T03:49:26.134Z,69.86
2018-08-16T03:50:30.372Z,70.14
2018-08-16T03:51:34.602Z,70.33
2018-08-16T03:52:38.825Z,70.62
2018-08-16T03:53:43.126Z,70.20
2018-08-16T03:54:47.311Z,70.60
2018-08-16T03:55:51.466Z,70.09
2018-08-16T03:56:55.650Z,70.81
2018-08-16T03:57:59.990Z,70.02
2018-08-16T03:59:04.185Z,70.20
2018-08-16T04:00:08.708Z,70.48
2018-08-16T04:01:12.875Z,70.98
2018-08-16T04:02:17.058Z,70.47
2018-08-16T04:03:21.230Z,70.51
2018-08-16T04:04:25.434Z,70.65
2018-08-16T04:05:29.560Z,70.99
2018-08-16T04:06:33.800Z,71.11
2018-08-16T04:07:38.159Z,70.99
2018-08-16T04:08:42.290Z,71.47
2018-08-16T04:09:46.491Z,71.02
2018-08-16T04:10:50.610Z,71.58
2018-08-16T04:11:54.831Z,71.26
2018-08-16T04:12:59.048Z,71.22
2018-08-16T04:14:03.419Z,71.27
2018-08-16T04:15:07.619Z,71.59
2018-08-16T04:16:11.782Z,71.52
2018-08-16T04:17:15.996Z,71.15
2018-08-16T04:18:20.179Z,71.89
2018-08-16T04:19:24.336Z,71.65
2018-08-16T04:20:28.505Z,71.81
2018-08-16T04:21:32.683Z,71.89
2018-08-16T04:22:37.011Z,72.18
2018-08-16T04:23:41.310Z,71.25
2018-08-16T04:24:45.568Z,72.30
2018-08-16T04:25:49.876Z,72.16
2018-08-16T04:26:54.216Z,72.33
2018-08-16T04:27:58.356Z,72.48
2018-08-16T04:29:02.576Z,71.22
2018-08-16T04:30:06.934Z,72.10
2018-08-16T04:31:11.083Z,72.52
2018-08-16T04:32:15.251Z,72.52
2018-08-16T04:33:19.510Z,71.91
2018-08-16T04:34:23.672Z,72.28
2018-08-16T04:35:27.849Z,72.06
2018-08-16T04:36:32.028Z,71.83
2018-08-16T04:37:36.459Z,72.34
2018-08-16T04:38:41.032Z,72.45
2018-08-16T04:39:45.340Z,71.82
2018-08-16T04:40:49.771Z,72.50
2018-08-16T04:41:53.964Z,72.17
2018-08-16T04:42:58.176Z,71.79
2018-08-16T04:44:02.449Z,71.84
2018-08-16T04:45:07.721Z,71.62
2018-08-16T04:46:11.901Z,71.88
2018-08-16T04:47:16.098Z,72.03
2018-08-16T04:48:20.538Z,71.42
2018-08-16T04:49:25.052Z,71.54
2018-08-16T04:50:29.255Z,71.70
2018-08-16T04:51:33.433Z,71.30
2018-08-16T04:52:37.736Z,71.80
2018-08-16T04:53:41.943Z,70.97
2018-08-16T04:54:46.242Z,71.02
2018-08-16T04:55:50.442Z,71.00
2018-08-16T04:56:55.135Z,71.50
2018-08-16T04:57:59.391Z,70.74
2018-08-16T04:59:03.692Z,70.55
2018-08-16T05:00:10.647Z,70.81
2018-08-16T05:01:14.887Z,70.30
2018-08-16T05:02:19.103Z,70.34
2018-08-16T05:03:23.301Z,70.80
2018-08-16T05:04:27.632Z,70.49
2018-08-16T05:05:31.959Z,69.99
2018-08-16T05:06:36.173Z,70.16
2018-08-16T05:07:40.334Z,70.12
2018-08-16T05:08:44.499Z,70.58
2018-08-16T05:09:48.675Z,69.81
2018-08-16T05:10:53.034Z,69.71
2018-08-16T05:11:57.219Z,69.89
2018-08-16T05:13:01.388Z,69.67
2018-08-16T05:14:05.660Z,70.06
2018-08-16T05:15:12.641Z,69.43
2018-08-16T05:16:16.876Z,69.42
2018-08-16T05:17:21.185Z,69.61
2018-08-16T05:18:25.291Z,69.93
2018-08-16T05:19:29.471Z,69.50
2018-08-16T05:20:33.683Z,69.22
2018-08-16T05:21:38.005Z,69.39
2018-08-16T05:22:42.930Z,69.25
2018-08-16T05:23:47.141Z,68.81
2018-08-16T05:24:51.501Z,69.52
2018-08-16T05:25:56.015Z,68.55
2018-08-16T05:27:00.391Z,68.73
2018-08-16T05:28:04.731Z,68.87
2018-08-16T05:29:09.241Z,68.57
2018-08-16T05:30:13.637Z,68.83
2018-08-16T05:31:17.858Z,68.19
2018-08-16T05:32:22.051Z,67.82
2018-08-16T05:33:26.275Z,68.01
2018-08-16T05:34:30.461Z,68.16
2018-08-16T05:35:34.679Z,68.00
2018-08-16T05:36:38.962Z,68.18
2018-08-16T05:37:44.015Z,68.05
2018-08-16T05:38:48.320Z,67.72
2018-08-16T05:39:52.526Z,67.48
2018-08-16T05:40:56.727Z,67.91
2018-08-16T05:42:01.319Z,67.82
2018-08-16T05:43:05.617Z,66.93
2018-08-16T05:44:09.814Z,67.23
2018-08-16T05:45:14.231Z,67.44
2018-08-16T05:46:18.433Z,66.79
2018-08-16T05:47:22.619Z,67.12
2018-08-16T05:48:26.834Z,67.53
2018-08-16T05:49:31.015Z,67.42
2018-08-16T05:50:35.292Z,67.46
2018-08-16T05:51:39.487Z,67.29
2018-08-16T05:52:43.702Z,67.20
2018-08-16T05:53:48.010Z,66.59
2018-08-16T05:54:52.214Z,67.37
2018-08-16T05:55:56.359Z,67.34
2018-08-16T05:57:00.559Z,66.87
2018-08-16T05:58:04.806Z,66.73
2018-08-16T05:59:09.203Z,66.86
2018-08-16T06:00:14.262Z,66.56
2018-08-16T06:01:18.481Z,66.94
2018-08-16T06:02:22.655Z,66.85
2018-08-16T06:03:26.865Z,66.74
2018-08-16T06:04:31.088Z,67.28
2018-08-16T06:05:36.193Z,66.48
2018-08-16T06:06:40.384Z,66.84
2018-08-16T06:07:44.621Z,66.30
2018-08-16T06:08:48.770Z,66.29
2018-08-16T06:09:52.951Z,66.94
2018-08-16T06:10:57.178Z,66.58
2018-08-16T06:12:01.387Z,66.05
2018-08-16T06:13:06.233Z,66.03
2018-08-16T06:14:10.469Z,65.99
2018-08-16T06:15:14.685Z,65.69
2018-08-16T06:16:19.017Z,65.89
2018-08-16T06:17:23.202Z,65.67
2018-08-16T06:18:27.496Z,66.33
2018-08-16T06:19:31.895Z,65.51
2018-08-16T06:20:36.156Z,66.20
2018-08-16T06:21:40.376Z,65.96
2018-08-16T06:22:44.556Z,66.18
2018-08-16T06:23:48.766Z,65.65
2018-08-16T06:24:52.968Z,65.99
2018-08-16T06:25:57.213Z,65.68
2018-08-16T06:27:01.449Z,65.53
2018-08-16T06:28:06.083Z,65.10
2018-08-16T06:29:10.317Z,64.56
2018-08-16T06:30:16.937Z,64.54
2018-08-16T06:31:21.295Z,64.43
2018-08-16T06:32:25.549Z,64.44
2018-08-16T06:33:29.891Z,64.41
2018-08-16T06:34:34.116Z,64.38
2018-08-16T06:35:38.357Z,64.47
2018-08-16T06:36:42.572Z,64.67
2018-08-16T06:37:47.319Z,64.19
2018-08-16T06:38:51.638Z,64.62
2018-08-16T06:39:56.499Z,64.16
2018-08-16T06:41:00.694Z,64.22
2018-08-16T06:42:04.929Z,64.42
2018-08-16T06:43:09.357Z,63.93
2018-08-16T06:44:13.588Z,64.07
2018-08-16T06:45:17.842Z,64.12
2018-08-16T06:46:22.275Z,63.54
2018-08-16T06:47:26.475Z,63.55
2018-08-16T06:48:30.769Z,63.80
2018-08-16T06:49:35.302Z,63.64
2018-08-16T06:50:39.586Z,62.95
2018-08-16T06:51:43.743Z,63.23
2018-08-16T06:52:48.136Z,63.17
2018-08-16T06:53:52.358Z,62.87
2018-08-16T06:54:56.552Z,63.31
2018-08-16T06:56:00.973Z,62.97
2018-08-16T06:57:05.186Z,63.23
2018-08-16T06:58:09.540Z,62.57
2018-08-16T06:59:13.815Z,62.59
2018-08-16T07:00:18.042Z,62.63
2018-08-16T07:01:22.275Z,62.87
2018-08-16T07:02:26.591Z,62.44
2018-08-16T07:03:30.782Z,62.99
2018-08-16T07:04:35.174Z,62.40
2018-08-16T07:05:39.643Z,62.35
2018-08-16T07:06:44.038Z,63.06
2018-08-16T07:07:48.263Z,62.40
2018-08-16T07:08:52.727Z,62.11
2018-08-16T07:09:56.979Z,62.55
2018-08-16T07:11:01.294Z,62.43
2018-08-16T07:12:06.056Z,62.46
2018-08-16T07:13:10.207Z,61.75
2018-08-16T07:14:14.452Z,61.84
2018-08-16T07:15:18.643Z,62.20
2018-08-16T07:16:22.826Z,62.24
2018-08-16T07:17:27.023Z,61.76
2018-08-16T07:18:31.274Z,62.35
2018-08-16T07:19:35.473Z,61.83
2018-08-16T07:20:39.787Z,62.07
2018-08-16T07:21:43.967Z,61.70
2018-08-16T07:22:48.153Z,61.90
2018-08-16T07:23:52.343Z,62.00
2018-08-16T07:24:56.636Z,61.58
2018-08-16T07:26:00.830Z,61.70
2018-08-16T07:27:05.122Z,60.96
2018-08-16T07:28:09.315Z,61.20
2018-08-16T07:29:13.500Z,60.47
2018-08-16T07:30:17.671Z,60.27
2018-08-16T07:31:21.992Z,60.65
2018-08-16T07:32:26.179Z,59.83
2018-08-16T07:33:30.660Z,60.11
2018-08-16T07:34:34.842Z,60.20
2018-08-16T07:35:39.030Z,59.92
2018-08-16T07:36:43.272Z,59.74
2018-08-16T07:37:47.785Z,59.14
2018-08-16T07:38:51.930Z,59.27
2018-08-16T07:39:56.115Z,59.19
2018-08-16T07:41:00.320Z,59.09
2018-08-16T07:42:04.605Z,59.54
2018-08-16T07:43:08.832Z,58.83
2018-08-16T07:44:12.990Z,58.82
2018-08-16T07:45:17.322Z,58.80
2018-08-16T07:46:21.677Z,58.59
2018-08-16T07:47:25.914Z,59.17
2018-08-16T07:48:30.593Z,58.39
2018-08-16T07:49:34.877Z,58.67
2018-08-16T07:50:39.054Z,58.61
2018-08-16T07:51:43.312Z,58.92
2018-08-16T07:52:47.512Z,59.14
2018-08-16T07:53:51.677Z,58.62
2018-08-16T07:54:55.989Z,58.64
2018-08-16T07:56:00.156Z,58.97
2018-08-16T07:57:04.477Z,58.61
2018-08-16T07:58:08.611Z,58.61
2018-08-16T07:59:12.944Z,58.97
2018-08-16T08:00:18.620Z,58.96
2018-08-16T08:01:22.831Z,58.76
2018-08-16T08:02:27.003Z,58.30
2018-08-16T08:03:31.198Z,58.79
2018-08-16T08:04:35.531Z,58.73
2018-08-16T08:05:39.710Z,59.02
2018-08-16T08:06:43.914Z,58.29
2018-08-16T08:07:48.272Z,58.75
2018-08-16T08:08:52.516Z,58.10
2018-08-16T08:09:56.705Z,58.08
2018-08-16T08:11:00.869Z,58.20
2018-08-16T08:12:05.177Z,58.23
2018-08-16T08:13:09.339Z,58.19
2018-08-16T08:14:13.626Z,57.57
2018-08-16T08:15:17.785Z,57.61
2018-08-16T08:16:21.944Z,57.64
2018-08-16T08:17:26.360Z,57.77
2018-08-16T08:18:30.820Z,56.96
2018-08-16T08:19:35.123Z,56.63
2018-08-16T08:20:39.370Z,56.13
2018-08-16T08:21:43.556Z,56.98
2018-08-16T08:22:47.984Z,56.94
2018-08-16T08:23:52.140Z,56.37
2018-08-16T08:24:56.350Z,56.71
2018-08-16T08:26:00.559Z,57.36
2018-08-16T08:27:04.799Z,56.58
2018-08-16T08:28:09.010Z,57.28
2018-08-16T08:29:13.158Z,57.25
2018-08-16T08:30:17.728Z,56.85
2018-08-16T08:31:21.864Z,56.34
2018-08-16T08:32:26.015Z,56.69
2018-08-16T08:33:31.389Z,56.34
2018-08-16T08:34:35.651Z,56.22
2018-08-16T08:35:39.862Z,55.67
2018-08-16T08:36:55.349Z,56.19
2018-08-16T08:38:03.969Z,56.03
2018-08-16T08:39:09.259Z,56.04
2018-08-16T08:40:13.494Z,55.93
2018-08-16T08:41:17.728Z,55.77
2018-08-16T08:42:21.940Z,55.51
2018-08-16T08:43:37.681Z,55.83
2018-08-16T08:44:41.832Z,55.84
2018-08-16T08:45:45.999Z,55.94
2018-08-16T08:46:51.328Z,55.21
2018-08-16T08:47:57.447Z,55.25
2018-08-16T08:49:01.623Z,55.27
2018-08-16T08:50:08.084Z,55.77
2018-08-16T08:51:12.263Z,55.28
2018-08-16T08:52:16.479Z,55.24
2018-08-16T08:55:38.477Z,55.28
2018-08-16T08:56:53.969Z,55.66
2018-08-16T08:58:09.519Z,55.38
2018-08-16T08:59:13.707Z,55.64
2018-08-16T09:00:17.899Z,55.79
2018-08-16T09:01:22.061Z,55.73
2018-08-16T09:02:26.327Z,56.29
2018-08-16T09:03:30.510Z,56.01
2018-08-16T09:04:35.273Z,55.65
2018-08-16T09:05:39.455Z,55.82
2018-08-16T09:06:43.659Z,56.01
2018-08-16T09:07:47.785Z,56.53
2018-08-16T09:08:51.978Z,56.14
2018-08-16T09:11:21.847Z,56.19
2018-08-16T09:12:37.363Z,55.39
2018-08-16T09:13:53.959Z,55.54
2018-08-16T09:15:09.234Z,55.94
2018-08-16T09:16:17.729Z,55.21
2018-08-16T09:17:21.934Z,55.33
2018-08-16T09:18:26.289Z,55.86
2018-08-16T09:19:30.549Z,55.18
2018-08-16T09:20:34.735Z,55.13
2018-08-16T09:21:38.967Z,54.94
2018-08-16T09:22:43.472Z,55.07
2018-08-16T09:23:47.811Z,54.66
2018-08-16T09:24:52.089Z,55.39
2018-08-16T09:25:56.219Z,55.32
2018-08-16T09:27:00.376Z,55.25
2018-08-16T09:28:04.601Z,54.59
2018-08-16T09:29:23.098Z,54.92
2018-08-16T09:32:46.263Z,54.10
2018-08-16T09:34:01.577Z,54.67
2018-08-16T09:35:06.081Z,54.05
2018-08-16T09:36:10.252Z,54.64
2018-08-16T09:37:18.564Z,54.06
2018-08-16T09:38:23.203Z,54.17
2018-08-16T09:39:27.733Z,53.71
2018-08-16T09:40:32.088Z,53.38
2018-08-16T09:41:36.534Z,54.15
2018-08-16T09:42:40.760Z,54.10
2018-08-16T09:43:44.974Z,53.65
2018-08-16T09:44:58.016Z,53.87
2018-08-16T09:47:12.510Z,54.25
2018-08-16T09:48:27.952Z,53.45
2018-08-16T09:49:34.123Z,53.84
2018-08-16T09:50:38.434Z,53.61
2018-08-16T09:51:44.159Z,53.31
2018-08-16T09:52:48.362Z,53.88
2018-08-16T09:53:52.693Z,53.23
2018-08-16T09:54:56.880Z,53.36
2018-08-16T09:56:01.065Z,53.28
2018-08-16T09:57:06.672Z,53.04
2018-08-16T09:58:11.063Z,53.56
2018-08-16T09:59:15.322Z,52.93
2018-08-16T10:00:23.764Z,53.58
2018-08-16T10:01:27.903Z,52.87
2018-08-16T10:02:32.274Z,53.40
2018-08-16T10:03:36.410Z,53.26
2018-08-16T10:04:40.587Z,53.16
2018-08-16T10:05:44.751Z,53.02
2018-08-16T10:06:49.124Z,52.92
2018-08-16T10:07:53.315Z,52.81
2018-08-16T10:08:57.913Z,52.50
2018-08-16T10:10:02.161Z,52.67
2018-08-16T10:11:06.351Z,52.62
2018-08-16T10:12:10.631Z,53.04
2018-08-16T10:13:14.801Z,52.66
2018-08-16T10:14:19.340Z,52.92
2018-08-16T10:15:23.554Z,52.25
2018-08-16T10:16:27.951Z,52.36
2018-08-16T10:17:32.169Z,52.24
2018-08-16T10:18:36.304Z,52.68
2018-08-16T10:19:40.613Z,52.58
2018-08-16T10:20:44.784Z,52.66
2018-08-16T10:21:49.070Z,52.31
2018-08-16T10:22:53.211Z,51.99
2018-08-16T10:23:57.360Z,52.44
2018-08-16T10:25:01.514Z,51.74
2018-08-16T10:26:05.698Z,51.70
2018-08-16T10:27:09.904Z,52.47
2018-08-16T10:28:14.094Z,51.82
2018-08-16T10:29:18.377Z,52.07
2018-08-16T10:30:22.548Z,52.40
2018-08-16T10:31:26.744Z,52.45
2018-08-16T10:32:30.939Z,52.36
2018-08-16T10:33:35.128Z,51.51
2018-08-16T10:34:39.290Z,51.63
2018-08-16T10:35:43.438Z,51.74
2018-08-16T10:36:47.575Z,51.94
2018-08-16T10:37:51.744Z,51.68
2018-08-16T10:38:56.335Z,51.75
2018-08-16T10:40:00.519Z,50.97
2018-08-16T10:41:05.360Z,50.92
2018-08-16T10:42:09.651Z,51.01
2018-08-16T10:43:13.839Z,51.10
2018-08-16T10:44:18.178Z,51.61
2018-08-16T10:45:22.275Z,51.56
2018-08-16T10:46:26.467Z,50.72
2018-08-16T10:47:30.632Z,51.12
2018-08-16T10:48:34.937Z,50.77
2018-08-16T10:49:39.103Z,51.23
2018-08-16T10:50:43.441Z,51.24
2018-08-16T10:51:47.776Z,50.70
2018-08-16T10:52:52.100Z,51.17
2018-08-16T10:53:56.503Z,50.79
2018-08-16T10:55:00.823Z,51.37
2018-08-16T10:56:05.175Z,50.96
2018-08-16T10:57:09.519Z,50.56
2018-08-16T10:58:13.807Z,50.73
2018-08-16T10:59:18.188Z,51.32
2018-08-16T11:00:22.555Z,50.79
2018-08-16T11:01:26.926Z,50.99
2018-08-16T11:02:31.213Z,51.09
2018-08-16T11:03:35.555Z,50.73
2018-08-16T11:04:39.772Z,51.37
2018-08-16T11:05:43.934Z,51.33
2018-08-16T11:06:48.165Z,50.74
2018-08-16T11:07:52.371Z,50.68
2018-08-16T11:08:56.535Z,51.26
2018-08-16T11:10:01.191Z,50.76
2018-08-16T11:11:06.055Z,51.32
2018-08-16T11:12:10.235Z,50.98
2018-08-16T11:13:14.423Z,51.21
2018-08-16T11:14:18.608Z,50.16
2018-08-16T11:15:23.549Z,50.61
2018-08-16T11:16:27.689Z,50.42
2018-08-16T11:17:31.834Z,50.07
2018-08-16T11:18:36.003Z,49.99
2018-08-16T11:19:40.167Z,50.51
2018-08-16T11:20:44.678Z,50.54
2018-08-16T11:21:48.811Z,50.38
2018-08-16T11:22:53.395Z,50.26
2018-08-16T11:23:57.551Z,50.29
2018-08-16T11:25:01.908Z,49.74
2018-08-16T11:26:06.103Z,49.81
2018-08-16T11:27:10.317Z,49.72
2018-08-16T11:28:14.459Z,50.07
2018-08-16T11:29:18.670Z,49.71
2018-08-16T11:30:22.788Z,50.11
2018-08-16T11:31:27.138Z,49.92
2018-08-16T11:32:31.275Z,49.65
2018-08-16T11:33:35.475Z,49.61
2018-08-16T11:34:39.614Z,50.07
2018-08-16T11:35:43.783Z,50.01
2018-08-16T11:36:47.979Z,50.20
2018-08-16T11:37:52.252Z,49.37
2018-08-16T11:38:56.534Z,49.49
2018-08-16T11:40:00.721Z,49.46
2018-08-16T11:41:05.041Z,49.85
2018-08-16T11:42:09.239Z,49.49
2018-08-16T11:43:13.530Z,49.22
2018-08-16T11:44:17.716Z,49.92
2018-08-16T11:45:21.887Z,49.38
2018-08-16T11:46:26.141Z,49.73
2018-08-16T11:47:30.598Z,49.77
2018-08-16T11:48:34.775Z,49.47
2018-08-16T11:49:38.944Z,49.68
2018-08-16T11:50:43.272Z,49.50
2018-08-16T11:51:47.452Z,49.62
2018-08-16T11:52:52.930Z,48.86
2018-08-16T11:53:57.056Z,48.56
2018-08-16T11:55:01.226Z,49.31
2018-08-16T11:56:05.575Z,48.87
2018-08-16T11:57:09.802Z,48.38
2018-08-16T11:58:14.214Z,48.50
2018-08-16T11:59:18.375Z,48.28
2018-08-16T12:00:22.624Z,48.52
2018-08-16T12:01:26.810Z,48.68
2018-08-16T12:02:30.987Z,48.70
2018-08-16T12:03:35.178Z,48.79
2018-08-16T12:04:39.751Z,48.15
2018-08-16T12:05:43.955Z,48.05
2018-08-16T12:06:48.160Z,48.25
2018-08-16T12:07:52.366Z,48.37
2018-08-16T12:08:56.663Z,48.23
2018-08-16T12:10:00.899Z,48.33
2018-08-16T12:11:05.496Z,48.05
2018-08-16T12:12:09.667Z,48.72
2018-08-16T12:13:13.904Z,47.82
2018-08-16T12:14:18.131Z,47.47
2018-08-16T12:15:22.418Z,48.11
2018-08-16T12:16:26.758Z,47.36
2018-08-16T12:17:31.129Z,47.51
2018-08-16T12:18:35.442Z,47.57
2018-08-16T12:19:39.655Z,47.68
2018-08-16T12:20:43.851Z,48.01
2018-08-16T12:21:48.010Z,47.72
2018-08-16T12:22:52.263Z,47.55
2018-08-16T12:23:56.403Z,47.30
2018-08-16T12:25:00.592Z,47.00
2018-08-16T12:26:04.818Z,47.32
2018-08-16T12:27:09.043Z,47.25
2018-08-16T12:28:13.295Z,47.30
2018-08-16T12:29:17.539Z,46.74
2018-08-16T12:30:21.757Z,46.94
2018-08-16T12:31:26.144Z,46.88
2018-08-16T12:32:30.312Z,47.00
2018-08-16T12:33:34.486Z,46.81
2018-08-16T12:34:38.655Z,46.27
2018-08-16T12:35:42.874Z,46.48
2018-08-16T12:36:47.070Z,46.68
2018-08-16T12:37:51.575Z,46.97
2018-08-16T12:38:55.853Z,46.71
2018-08-16T12:40:00.006Z,45.86
2018-08-16T12:41:04.796Z,45.57
2018-08-16T12:42:09.284Z,45.89
2018-08-16T12:43:13.596Z,45.96
2018-08-16T12:44:17.727Z,46.06
2018-08-16T12:45:21.880Z,46.22
2018-08-16T12:46:26.228Z,45.96
2018-08-16T12:47:30.314Z,46.21
2018-08-16T12:48:34.474Z,46.25
2018-08-16T12:49:38.664Z,45.59
2018-08-16T12:50:42.840Z,45.72
2018-08-16T12:51:47.018Z,45.09
2018-08-16T12:52:51.235Z,45.28
2018-08-16T12:53:55.388Z,45.66
2018-08-16T12:54:59.624Z,45.58
2018-08-16T12:56:04.008Z,45.13
2018-08-16T12:57:08.215Z,45.20
2018-08-16T12:58:12.408Z,45.06
2018-08-16T12:59:16.585Z,45.30
2018-08-16T13:00:20.785Z,45.78
2018-08-16T13:01:25.002Z,45.35
2018-08-16T13:02:29.207Z,45.80
2018-08-16T13:03:33.366Z,45.36
2018-08-16T13:04:37.594Z,44.97
2018-08-16T13:05:41.779Z,45.14
2018-08-16T13:06:45.931Z,45.27
2018-08-16T13:07:50.142Z,44.84
2018-08-16T13:08:55.787Z,44.77
2018-08-16T13:10:00.068Z,45.36
2018-08-16T13:11:04.287Z,45.15
2018-08-16T13:12:08.479Z,45.36
2018-08-16T13:13:12.699Z,45.49
2018-08-16T13:14:16.863Z,44.37
2018-08-16T13:15:21.202Z,45.26
2018-08-16T13:16:25.352Z,44.77
2018-08-16T13:17:29.780Z,45.02
2018-08-16T13:18:34.166Z,45.11
2018-08-16T13:19:38.616Z,44.58
2018-08-16T13:20:43.196Z,44.83
2018-08-16T13:21:47.414Z,45.20
2018-08-16T13:22:51.642Z,44.71
2018-08-16T13:23:55.827Z,45.57
2018-08-16T13:25:00.055Z,45.14
2018-08-16T13:26:04.259Z,45.22
2018-08-16T13:27:08.566Z,44.87
2018-08-16T13:28:13.045Z,44.28
2018-08-16T13:29:19.116Z,45.35
2018-08-16T13:30:23.539Z,44.90
2018-08-16T13:31:27.679Z,44.85
2018-08-16T13:32:31.958Z,44.65
2018-08-16T13:33:36.115Z,44.63
2018-08-16T13:34:40.299Z,44.91
2018-08-16T13:35:44.458Z,44.88
2018-08-16T13:36:48.595Z,44.67
2018-08-16T13:37:52.739Z,44.78
2018-08-16T13:38:57.317Z,44.06
2018-08-16T13:40:01.671Z,43.73
2018-08-16T13:41:06.362Z,44.07
2018-08-16T13:42:10.638Z,43.93
2018-08-16T13:43:15.187Z,44.36
2018-08-16T13:44:19.376Z,44.07
2018-08-16T13:45:24.052Z,43.61
2018-08-16T13:46:28.235Z,44.47
2018-08-16T13:47:32.402Z,44.23
2018-08-16T13:48:36.643Z,44.54
2018-08-16T13:49:40.872Z,44.30
2018-08-16T13:50:45.181Z,44.19
2018-08-16T13:51:49.806Z,44.31
2018-08-16T13:52:53.996Z,44.20
2018-08-16T13:53:58.159Z,43.59
2018-08-16T13:55:02.791Z,43.88
2018-08-16T13:56:06.951Z,43.68
2018-08-16T13:57:11.167Z,43.59
2018-08-16T13:58:15.472Z,43.01